sensor_id;sensor_type;location;lat;lon;timestamp;P1;durP1;ratioP1;P2;durP2;ratioP2
64452;SDS011;50813;52.654;6.766;2023-05-23T00:00:59;29.3;;;18.8;;
64452;SDS011;50813;52.654;6.766;2023-05-23T00:02:35;29.9;;;19.7;;
64452;SDS011;50813;52.654;6.766;2023-05-23T00:04:11;30.7;;;20.41;;
64452;SDS011;50813;52.654;6.766;2023-05-23T00:07:24;31.9;;;20.0;;
64452;SDS011;50813;52.654;6.766;2023-05-23T00:09:00;32.3;;;20.11;;
64452;SDS011;50813;52.654;6.766;2023-05-23T00:10:37;29.8;;;20.7;;
64452;SDS011;50813;52.654;6.766;2023-05-23T00:13:49;33.1;;;20.11;;
64452;SDS011;50813;52.654;6.766;2023-05-23T00:15:26;34.0;;;21.3;;
64452;SDS011;50813;52.654;6.766;2023-05-23T00:17:02;30.8;;;20.2;;
64452;SDS011;50813;52.654;6.766;2023-05-23T00:20:17;35.4;;;20.8;;
64452;SDS011;50813;52.654;6.766;2023-05-23T00:21:53;32.6;;;20.11;;
64452;SDS011;50813;52.654;6.766;2023-05-23T00:23:30;33.71;;;19.61;;
64452;SDS011;50813;52.654;6.766;2023-05-23T00:25:06;30.9;;;18.41;;
64452;SDS011;50813;52.654;6.766;2023-05-23T00:28:19;25.5;;;17.7;;
64452;SDS011;50813;52.654;6.766;2023-05-23T00:29:55;27.2;;;17.41;;
64452;SDS011;50813;52.654;6.766;2023-05-23T00:31:31;23.9;;;17.0;;
64452;SDS011;50813;52.654;6.766;2023-05-23T00:34:44;27.0;;;16.8;;
64452;SDS011;50813;52.654;6.766;2023-05-23T00:36:20;25.9;;;16.4;;
64452;SDS011;50813;52.654;6.766;2023-05-23T00:37:56;22.2;;;15.7;;
64452;SDS011;50813;52.654;6.766;2023-05-23T00:41:09;23.4;;;15.2;;
64452;SDS011;50813;52.654;6.766;2023-05-23T00:42:45;22.7;;;15.3;;
64452;SDS011;50813;52.654;6.766;2023-05-23T00:44:22;23.5;;;16.11;;
64452;SDS011;50813;52.654;6.766;2023-05-23T00:45:58;22.7;;;14.8;;
64452;SDS011;50813;52.654;6.766;2023-05-23T00:49:12;20.11;;;14.4;;
64452;SDS011;50813;52.654;6.766;2023-05-23T00:50:49;19.11;;;13.5;;
64452;SDS011;50813;52.654;6.766;2023-05-23T00:52:25;19.7;;;13.3;;
64452;SDS011;50813;52.654;6.766;2023-05-23T00:55:39;17.8;;;13.3;;
64452;SDS011;50813;52.654;6.766;2023-05-23T00:57:15;19.2;;;13.3;;
64452;SDS011;50813;52.654;6.766;2023-05-23T00:58:52;17.41;;;12.5;;
64452;SDS011;50813;52.654;6.766;2023-05-23T01:02:05;18.2;;;12.7;;
64452;SDS011;50813;52.654;6.766;2023-05-23T01:03:41;15.2;;;11.5;;
64452;SDS011;50813;52.654;6.766;2023-05-23T01:05:18;15.8;;;12.1;;
64452;SDS011;50813;52.654;6.766;2023-05-23T01:06:55;15.9;;;10.8;;
64452;SDS011;50813;52.654;6.766;2023-05-23T01:10:08;30.1;;;12.2;;
64452;SDS011;50813;52.654;6.766;2023-05-23T01:11:48;30.1;;;12.2;;
64452;SDS011;50813;52.654;6.766;2023-05-23T01:13:37;16.8;;;11.9;;
64452;SDS011;50813;52.654;6.766;2023-05-23T01:15:18;14.5;;;11.8;;
64452;SDS011;50813;52.654;6.766;2023-05-23T01:18:44;15.4;;;12.6;;
64452;SDS011;50813;52.654;6.766;2023-05-23T01:20:29;18.0;;;14.0;;
64452;SDS011;50813;52.654;6.766;2023-05-23T01:22:10;16.8;;;12.9;;
64452;SDS011;50813;52.654;6.766;2023-05-23T01:24:40;16.61;;;13.5;;
64452;SDS011;50813;52.654;6.766;2023-05-23T01:26:30;17.5;;;13.5;;
64452;SDS011;50813;52.654;6.766;2023-05-23T01:28:15;20.5;;;13.9;;
64452;SDS011;50813;52.654;6.766;2023-05-23T01:29:53;18.3;;;14.1;;
64452;SDS011;50813;52.654;6.766;2023-05-23T01:33:12;18.41;;;12.9;;
64452;SDS011;50813;52.654;6.766;2023-05-23T01:34:51;16.7;;;13.5;;
64452;SDS011;50813;52.654;6.766;2023-05-23T01:36:28;16.7;;;13.5;;
64452;SDS011;50813;52.654;6.766;2023-05-23T01:39:40;17.3;;;13.3;;
64452;SDS011;50813;52.654;6.766;2023-05-23T01:41:16;16.9;;;13.5;;
64452;SDS011;50813;52.654;6.766;2023-05-23T01:42:53;14.6;;;13.0;;
64452;SDS011;50813;52.654;6.766;2023-05-23T01:44:31;16.61;;;11.9;;
64452;SDS011;50813;52.654;6.766;2023-05-23T01:47:46;13.1;;;11.7;;
64452;SDS011;50813;52.654;6.766;2023-05-23T01:49:25;15.7;;;12.4;;
64452;SDS011;50813;52.654;6.766;2023-05-23T01:51:03;18.41;;;12.3;;
64452;SDS011;50813;52.654;6.766;2023-05-23T01:54:16;15.7;;;11.8;;
64452;SDS011;50813;52.654;6.766;2023-05-23T01:55:53;13.4;;;12.0;;
64452;SDS011;50813;52.654;6.766;2023-05-23T01:57:30;15.7;;;12.5;;
64452;SDS011;50813;52.654;6.766;2023-05-23T01:59:08;14.9;;;11.6;;
64452;SDS011;50813;52.654;6.766;2023-05-23T02:02:21;18.2;;;13.2;;
64452;SDS011;50813;52.654;6.766;2023-05-23T02:03:57;14.8;;;12.4;;
64452;SDS011;50813;52.654;6.766;2023-05-23T02:05:33;14.6;;;11.7;;
64452;SDS011;50813;52.654;6.766;2023-05-23T02:08:45;14.7;;;10.9;;
64452;SDS011;50813;52.654;6.766;2023-05-23T02:10:22;14.1;;;12.0;;
64452;SDS011;50813;52.654;6.766;2023-05-23T02:11:58;12.8;;;11.2;;
64452;SDS011;50813;52.654;6.766;2023-05-23T02:15:10;15.6;;;12.2;;
64452;SDS011;50813;52.654;6.766;2023-05-23T02:16:46;16.4;;;12.7;;
64452;SDS011;50813;52.654;6.766;2023-05-23T02:18:23;21.7;;;13.7;;
64452;SDS011;50813;52.654;6.766;2023-05-23T02:21:35;16.5;;;14.7;;
64452;SDS011;50813;52.654;6.766;2023-05-23T02:23:12;18.2;;;14.7;;
64452;SDS011;50813;52.654;6.766;2023-05-23T02:24:48;21.8;;;15.6;;
64452;SDS011;50813;52.654;6.766;2023-05-23T02:26:24;20.11;;;14.3;;
64452;SDS011;50813;52.654;6.766;2023-05-23T02:29:37;21.4;;;14.8;;
64452;SDS011;50813;52.654;6.766;2023-05-23T02:31:13;18.8;;;14.4;;
64452;SDS011;50813;52.654;6.766;2023-05-23T02:32:49;16.0;;;13.0;;
64452;SDS011;50813;52.654;6.766;2023-05-23T02:36:01;19.5;;;13.9;;
64452;SDS011;50813;52.654;6.766;2023-05-23T02:37:37;19.91;;;13.3;;
64452;SDS011;50813;52.654;6.766;2023-05-23T02:39:14;17.7;;;13.4;;
64452;SDS011;50813;52.654;6.766;2023-05-23T02:42:26;17.0;;;12.7;;
64452;SDS011;50813;52.654;6.766;2023-05-23T02:44:02;20.8;;;12.3;;
64452;SDS011;50813;52.654;6.766;2023-05-23T02:45:38;24.0;;;12.7;;
64452;SDS011;50813;52.654;6.766;2023-05-23T02:47:14;18.7;;;11.9;;
64452;SDS011;50813;52.654;6.766;2023-05-23T02:50:27;21.8;;;12.2;;
64452;SDS011;50813;52.654;6.766;2023-05-23T02:52:03;18.3;;;11.7;;
64452;SDS011;50813;52.654;6.766;2023-05-23T02:53:39;19.61;;;12.6;;
64452;SDS011;50813;52.654;6.766;2023-05-23T02:56:51;25.4;;;13.7;;
64452;SDS011;50813;52.654;6.766;2023-05-23T02:58:28;22.5;;;13.2;;
64452;SDS011;50813;52.654;6.766;2023-05-23T03:00:04;26.2;;;13.1;;
64452;SDS011;50813;52.654;6.766;2023-05-23T03:03:17;24.3;;;13.0;;
64452;SDS011;50813;52.654;6.766;2023-05-23T03:04:53;26.7;;;13.8;;
64452;SDS011;50813;52.654;6.766;2023-05-23T03:06:30;24.7;;;12.8;;
64452;SDS011;50813;52.654;6.766;2023-05-23T03:09:42;26.6;;;14.0;;
64452;SDS011;50813;52.654;6.766;2023-05-23T03:11:18;24.3;;;13.6;;
64452;SDS011;50813;52.654;6.766;2023-05-23T03:12:54;23.0;;;13.0;;
64452;SDS011;50813;52.654;6.766;2023-05-23T03:14:30;25.0;;;13.4;;
64452;SDS011;50813;52.654;6.766;2023-05-23T03:17:43;23.1;;;13.6;;
64452;SDS011;50813;52.654;6.766;2023-05-23T03:19:19;19.11;;;12.3;;
64452;SDS011;50813;52.654;6.766;2023-05-23T03:24:08;21.8;;;12.2;;
64452;SDS011;50813;52.654;6.766;2023-05-23T03:25:44;24.0;;;12.0;;
64452;SDS011;50813;52.654;6.766;2023-05-23T03:27:20;18.41;;;11.1;;
64452;SDS011;50813;52.654;6.766;2023-05-23T03:30:32;18.7;;;10.4;;
64452;SDS011;50813;52.654;6.766;2023-05-23T03:32:09;17.5;;;10.3;;
64452;SDS011;50813;52.654;6.766;2023-05-23T03:33:45;25.7;;;10.5;;
64452;SDS011;50813;52.654;6.766;2023-05-23T03:35:21;16.0;;;9.21;;
64452;SDS011;50813;52.654;6.766;2023-05-23T03:38:33;16.4;;;9.6;;
64452;SDS011;50813;52.654;6.766;2023-05-23T03:40:10;12.3;;;8.5;;
64452;SDS011;50813;52.654;6.766;2023-05-23T03:41:46;16.0;;;9.31;;
64452;SDS011;50813;52.654;6.766;2023-05-23T03:44:58;16.9;;;9.71;;
64452;SDS011;50813;52.654;6.766;2023-05-23T03:46:34;22.4;;;11.5;;
64452;SDS011;50813;52.654;6.766;2023-05-23T03:48:10;20.9;;;10.8;;
64452;SDS011;50813;52.654;6.766;2023-05-23T03:51:23;24.5;;;12.6;;
64452;SDS011;50813;52.654;6.766;2023-05-23T03:52:59;23.4;;;11.9;;
64452;SDS011;50813;52.654;6.766;2023-05-23T03:54:35;23.1;;;11.5;;
64452;SDS011;50813;52.654;6.766;2023-05-23T03:57:47;63.5;;;13.6;;
64452;SDS011;50813;52.654;6.766;2023-05-23T03:59:24;25.5;;;11.1;;
64452;SDS011;50813;52.654;6.766;2023-05-23T04:01:00;24.6;;;10.3;;
64452;SDS011;50813;52.654;6.766;2023-05-23T04:02:36;21.2;;;10.8;;
64452;SDS011;50813;52.654;6.766;2023-05-23T04:05:48;23.1;;;10.3;;
64452;SDS011;50813;52.654;6.766;2023-05-23T04:07:24;23.7;;;10.1;;
64452;SDS011;50813;52.654;6.766;2023-05-23T04:09:01;22.0;;;10.7;;
64452;SDS011;50813;52.654;6.766;2023-05-23T04:12:13;24.9;;;11.3;;
64452;SDS011;50813;52.654;6.766;2023-05-23T04:13:49;23.7;;;11.3;;
64452;SDS011;50813;52.654;6.766;2023-05-23T04:15:25;23.5;;;10.1;;
64452;SDS011;50813;52.654;6.766;2023-05-23T04:18:38;28.5;;;11.1;;
64452;SDS011;50813;52.654;6.766;2023-05-23T04:20:14;23.8;;;10.9;;
64452;SDS011;50813;52.654;6.766;2023-05-23T04:21:50;23.1;;;10.4;;
64452;SDS011;50813;52.654;6.766;2023-05-23T04:25:03;20.3;;;10.21;;
64452;SDS011;50813;52.654;6.766;2023-05-23T04:26:41;21.3;;;9.6;;
64452;SDS011;50813;52.654;6.766;2023-05-23T04:28:17;33.0;;;11.5;;
64452;SDS011;50813;52.654;6.766;2023-05-23T04:29:53;21.5;;;9.4;;
64452;SDS011;50813;52.654;6.766;2023-05-23T04:33:05;23.6;;;10.21;;
64452;SDS011;50813;52.654;6.766;2023-05-23T04:34:42;17.2;;;9.21;;
64452;SDS011;50813;52.654;6.766;2023-05-23T04:36:18;17.91;;;9.31;;
64452;SDS011;50813;52.654;6.766;2023-05-23T04:39:30;45.3;;;11.3;;
64452;SDS011;50813;52.654;6.766;2023-05-23T04:41:06;21.2;;;9.71;;
64452;SDS011;50813;52.654;6.766;2023-05-23T04:42:43;21.3;;;10.0;;
64452;SDS011;50813;52.654;6.766;2023-05-23T04:45:55;20.7;;;9.81;;
64452;SDS011;50813;52.654;6.766;2023-05-23T04:47:31;22.0;;;8.6;;
64452;SDS011;50813;52.654;6.766;2023-05-23T04:49:07;16.7;;;8.5;;
64452;SDS011;50813;52.654;6.766;2023-05-23T04:50:44;17.3;;;8.81;;
64452;SDS011;50813;52.654;6.766;2023-05-23T04:53:57;21.8;;;8.9;;
64452;SDS011;50813;52.654;6.766;2023-05-23T04:55:33;18.5;;;8.81;;
64452;SDS011;50813;52.654;6.766;2023-05-23T04:57:09;14.8;;;8.31;;
64452;SDS011;50813;52.654;6.766;2023-05-23T05:00:21;17.61;;;8.1;;
64452;SDS011;50813;52.654;6.766;2023-05-23T05:01:58;17.8;;;8.5;;
64452;SDS011;50813;52.654;6.766;2023-05-23T05:03:34;14.6;;;7.7;;
64452;SDS011;50813;52.654;6.766;2023-05-23T05:06:46;18.3;;;8.2;;
64452;SDS011;50813;52.654;6.766;2023-05-23T05:08:22;13.4;;;7.6;;
64452;SDS011;50813;52.654;6.766;2023-05-23T05:09:59;13.1;;;7.4;;
64452;SDS011;50813;52.654;6.766;2023-05-23T05:11:35;16.4;;;8.2;;
64452;SDS011;50813;52.654;6.766;2023-05-23T05:14:47;15.5;;;7.1;;
64452;SDS011;50813;52.654;6.766;2023-05-23T05:16:23;13.6;;;7.3;;
64452;SDS011;50813;52.654;6.766;2023-05-23T05:17:59;14.6;;;6.8;;
64452;SDS011;50813;52.654;6.766;2023-05-23T05:21:12;37.9;;;8.2;;
64452;SDS011;50813;52.654;6.766;2023-05-23T05:22:53;12.8;;;6.1;;
64452;SDS011;50813;52.654;6.766;2023-05-23T05:24:30;13.6;;;6.5;;
64452;SDS011;50813;52.654;6.766;2023-05-23T05:27:43;20.0;;;7.1;;
64452;SDS011;50813;52.654;6.766;2023-05-23T05:29:19;16.2;;;6.2;;
64452;SDS011;50813;52.654;6.766;2023-05-23T05:30:55;19.61;;;7.2;;
64452;SDS011;50813;52.654;6.766;2023-05-23T05:32:31;17.2;;;7.4;;
64452;SDS011;50813;52.654;6.766;2023-05-23T05:35:44;12.8;;;6.5;;
64452;SDS011;50813;52.654;6.766;2023-05-23T05:37:20;15.9;;;6.0;;
64452;SDS011;50813;52.654;6.766;2023-05-23T05:38:56;12.6;;;6.6;;
64452;SDS011;50813;52.654;6.766;2023-05-23T05:42:09;14.5;;;5.7;;
64452;SDS011;50813;52.654;6.766;2023-05-23T05:43:45;18.5;;;6.4;;
64452;SDS011;50813;52.654;6.766;2023-05-23T05:45:22;14.6;;;6.1;;
64452;SDS011;50813;52.654;6.766;2023-05-23T05:48:34;13.4;;;5.9;;
64452;SDS011;50813;52.654;6.766;2023-05-23T05:50:10;17.11;;;5.9;;
64452;SDS011;50813;52.654;6.766;2023-05-23T05:51:46;15.9;;;6.6;;
64452;SDS011;50813;52.654;6.766;2023-05-23T05:54:59;13.0;;;5.2;;
64452;SDS011;50813;52.654;6.766;2023-05-23T05:56:35;12.7;;;5.11;;
64452;SDS011;50813;52.654;6.766;2023-05-23T05:58:11;13.8;;;5.3;;
64452;SDS011;50813;52.654;6.766;2023-05-23T05:59:47;16.4;;;6.0;;
64452;SDS011;50813;52.654;6.766;2023-05-23T06:03:00;47.9;;;7.1;;
64452;SDS011;50813;52.654;6.766;2023-05-23T06:04:36;17.2;;;6.6;;
64452;SDS011;50813;52.654;6.766;2023-05-23T06:06:12;13.6;;;5.5;;
64452;SDS011;50813;52.654;6.766;2023-05-23T06:09:24;21.0;;;6.7;;
64452;SDS011;50813;52.654;6.766;2023-05-23T06:11:00;15.0;;;5.9;;
64452;SDS011;50813;52.654;6.766;2023-05-23T06:12:37;15.7;;;6.8;;
64452;SDS011;50813;52.654;6.766;2023-05-23T06:15:49;16.5;;;6.8;;
64452;SDS011;50813;52.654;6.766;2023-05-23T06:17:26;18.7;;;7.2;;
64452;SDS011;50813;52.654;6.766;2023-05-23T06:19:02;17.5;;;6.9;;
64452;SDS011;50813;52.654;6.766;2023-05-23T06:20:39;19.61;;;7.0;;
64452;SDS011;50813;52.654;6.766;2023-05-23T06:23:51;14.9;;;7.4;;
64452;SDS011;50813;52.654;6.766;2023-05-23T06:25:27;17.11;;;7.9;;
64452;SDS011;50813;52.654;6.766;2023-05-23T06:27:03;19.11;;;8.31;;
64452;SDS011;50813;52.654;6.766;2023-05-23T06:30:16;19.5;;;9.0;;
64452;SDS011;50813;52.654;6.766;2023-05-23T06:31:52;18.2;;;7.8;;
64452;SDS011;50813;52.654;6.766;2023-05-23T06:33:29;20.9;;;8.81;;
64452;SDS011;50813;52.654;6.766;2023-05-23T06:36:42;19.91;;;8.9;;
64452;SDS011;50813;52.654;6.766;2023-05-23T06:38:19;18.2;;;8.71;;
64452;SDS011;50813;52.654;6.766;2023-05-23T06:39:55;16.8;;;7.2;;
64452;SDS011;50813;52.654;6.766;2023-05-23T06:43:07;17.7;;;7.4;;
64452;SDS011;50813;52.654;6.766;2023-05-23T06:44:43;19.61;;;8.4;;
64452;SDS011;50813;52.654;6.766;2023-05-23T06:46:20;14.1;;;7.1;;
64452;SDS011;50813;52.654;6.766;2023-05-23T06:47:56;19.11;;;8.0;;
64452;SDS011;50813;52.654;6.766;2023-05-23T06:51:08;17.61;;;7.9;;
64452;SDS011;50813;52.654;6.766;2023-05-23T06:52:44;16.7;;;7.6;;
64452;SDS011;50813;52.654;6.766;2023-05-23T06:54:21;19.0;;;7.9;;
64452;SDS011;50813;52.654;6.766;2023-05-23T06:57:33;19.61;;;6.9;;
64452;SDS011;50813;52.654;6.766;2023-05-23T06:59:09;18.11;;;7.6;;
64452;SDS011;50813;52.654;6.766;2023-05-23T07:00:45;12.9;;;6.0;;
64452;SDS011;50813;52.654;6.766;2023-05-23T07:03:58;15.1;;;6.7;;
64452;SDS011;50813;52.654;6.766;2023-05-23T07:05:33;17.11;;;6.6;;
64452;SDS011;50813;52.654;6.766;2023-05-23T07:07:09;14.3;;;6.6;;
64452;SDS011;50813;52.654;6.766;2023-05-23T07:08:45;12.2;;;6.3;;
64452;SDS011;50813;52.654;6.766;2023-05-23T07:11:58;10.21;;;6.4;;
64452;SDS011;50813;52.654;6.766;2023-05-23T07:13:34;33.3;;;8.0;;
64452;SDS011;50813;52.654;6.766;2023-05-23T07:15:10;15.8;;;6.3;;
64452;SDS011;50813;52.654;6.766;2023-05-23T07:18:22;10.5;;;5.2;;
64452;SDS011;50813;52.654;6.766;2023-05-23T07:20:00;8.9;;;5.0;;
64452;SDS011;50813;52.654;6.766;2023-05-23T07:21:36;18.41;;;5.8;;
64452;SDS011;50813;52.654;6.766;2023-05-23T07:24:48;14.5;;;5.2;;
64452;SDS011;50813;52.654;6.766;2023-05-23T07:26:25;14.4;;;5.2;;
64452;SDS011;50813;52.654;6.766;2023-05-23T07:28:01;16.0;;;4.61;;
64452;SDS011;50813;52.654;6.766;2023-05-23T07:31:13;13.4;;;5.4;;
64452;SDS011;50813;52.654;6.766;2023-05-23T07:32:49;9.9;;;4.7;;
64452;SDS011;50813;52.654;6.766;2023-05-23T07:34:26;13.9;;;4.7;;
64452;SDS011;50813;52.654;6.766;2023-05-23T07:36:02;11.6;;;4.5;;
64452;SDS011;50813;52.654;6.766;2023-05-23T07:39:14;10.21;;;4.0;;
64452;SDS011;50813;52.654;6.766;2023-05-23T07:40:50;12.2;;;4.7;;
64452;SDS011;50813;52.654;6.766;2023-05-23T07:42:26;15.7;;;5.11;;
64452;SDS011;50813;52.654;6.766;2023-05-23T07:45:39;15.5;;;4.3;;
64452;SDS011;50813;52.654;6.766;2023-05-23T07:47:15;13.7;;;4.2;;
64452;SDS011;50813;52.654;6.766;2023-05-23T07:48:51;21.8;;;5.4;;
64452;SDS011;50813;52.654;6.766;2023-05-23T07:52:04;12.7;;;4.41;;
64452;SDS011;50813;52.654;6.766;2023-05-23T07:53:40;12.9;;;3.8;;
64452;SDS011;50813;52.654;6.766;2023-05-23T07:55:16;12.6;;;4.2;;
64452;SDS011;50813;52.654;6.766;2023-05-23T07:56:52;14.5;;;4.1;;
64452;SDS011;50813;52.654;6.766;2023-05-23T08:00:05;12.9;;;4.2;;
64452;SDS011;50813;52.654;6.766;2023-05-23T08:01:42;16.3;;;4.41;;
64452;SDS011;50813;52.654;6.766;2023-05-23T08:03:18;12.0;;;4.61;;
64452;SDS011;50813;52.654;6.766;2023-05-23T08:06:30;14.7;;;4.5;;
64452;SDS011;50813;52.654;6.766;2023-05-23T08:08:07;13.1;;;4.2;;
64452;SDS011;50813;52.654;6.766;2023-05-23T08:09:43;15.9;;;4.3;;
64452;SDS011;50813;52.654;6.766;2023-05-23T08:12:55;15.7;;;4.2;;
64452;SDS011;50813;52.654;6.766;2023-05-23T08:14:31;16.11;;;4.1;;
64452;SDS011;50813;52.654;6.766;2023-05-23T08:16:07;18.8;;;4.61;;
64452;SDS011;50813;52.654;6.766;2023-05-23T08:19:20;16.5;;;4.0;;
64452;SDS011;50813;52.654;6.766;2023-05-23T08:20:56;20.7;;;4.8;;
64452;SDS011;50813;52.654;6.766;2023-05-23T08:22:32;15.3;;;4.5;;
64452;SDS011;50813;52.654;6.766;2023-05-23T08:24:08;16.3;;;4.0;;
64452;SDS011;50813;52.654;6.766;2023-05-23T08:27:21;19.7;;;4.3;;
64452;SDS011;50813;52.654;6.766;2023-05-23T08:28:57;20.3;;;4.1;;
64452;SDS011;50813;52.654;6.766;2023-05-23T08:30:33;17.11;;;4.3;;
64452;SDS011;50813;52.654;6.766;2023-05-23T08:33:45;17.3;;;5.11;;
64452;SDS011;50813;52.654;6.766;2023-05-23T08:35:22;17.8;;;4.8;;
64452;SDS011;50813;52.654;6.766;2023-05-23T08:36:58;17.8;;;4.8;;
64452;SDS011;50813;52.654;6.766;2023-05-23T08:40:11;17.41;;;4.41;;
64452;SDS011;50813;52.654;6.766;2023-05-23T08:41:52;15.9;;;4.0;;
64452;SDS011;50813;52.654;6.766;2023-05-23T08:43:28;15.4;;;3.8;;
64452;SDS011;50813;52.654;6.766;2023-05-23T08:45:05;17.5;;;4.1;;
64452;SDS011;50813;52.654;6.766;2023-05-23T08:48:21;18.91;;;4.61;;
64452;SDS011;50813;52.654;6.766;2023-05-23T08:49:59;14.1;;;4.0;;
64452;SDS011;50813;52.654;6.766;2023-05-23T08:51:36;15.7;;;3.8;;
64452;SDS011;50813;52.654;6.766;2023-05-23T08:54:58;18.91;;;4.7;;
64452;SDS011;50813;52.654;6.766;2023-05-23T08:56:36;17.91;;;3.9;;
64452;SDS011;50813;52.654;6.766;2023-05-23T08:58:12;14.9;;;4.3;;
64452;SDS011;50813;52.654;6.766;2023-05-23T08:59:49;19.2;;;4.41;;
64452;SDS011;50813;52.654;6.766;2023-05-23T09:03:05;18.3;;;4.3;;
64452;SDS011;50813;52.654;6.766;2023-05-23T09:04:41;16.0;;;4.0;;
64452;SDS011;50813;52.654;6.766;2023-05-23T09:06:18;17.11;;;4.1;;
64452;SDS011;50813;52.654;6.766;2023-05-23T09:09:31;17.2;;;4.0;;
64452;SDS011;50813;52.654;6.766;2023-05-23T09:11:08;17.2;;;3.9;;
64452;SDS011;50813;52.654;6.766;2023-05-23T09:12:44;17.2;;;4.41;;
64452;SDS011;50813;52.654;6.766;2023-05-23T09:14:20;13.3;;;3.5;;
64452;SDS011;50813;52.654;6.766;2023-05-23T09:17:37;19.2;;;4.41;;
64452;SDS011;50813;52.654;6.766;2023-05-23T09:19:14;18.2;;;4.41;;
64452;SDS011;50813;52.654;6.766;2023-05-23T09:20:50;14.2;;;4.1;;
64452;SDS011;50813;52.654;6.766;2023-05-23T09:24:04;14.0;;;3.7;;
64452;SDS011;50813;52.654;6.766;2023-05-23T09:25:44;15.3;;;4.41;;
64452;SDS011;50813;52.654;6.766;2023-05-23T09:27:22;17.7;;;4.5;;
64452;SDS011;50813;52.654;6.766;2023-05-23T09:28:59;20.3;;;4.2;;
64452;SDS011;50813;52.654;6.766;2023-05-23T09:32:14;16.3;;;5.11;;
64452;SDS011;50813;52.654;6.766;2023-05-23T09:33:52;21.3;;;4.3;;
64452;SDS011;50813;52.654;6.766;2023-05-23T09:35:28;16.11;;;3.9;;
64452;SDS011;50813;52.654;6.766;2023-05-23T09:38:41;23.9;;;5.4;;
64452;SDS011;50813;52.654;6.766;2023-05-23T09:40:20;14.8;;;4.1;;
64452;SDS011;50813;52.654;6.766;2023-05-23T09:41:57;18.11;;;4.8;;
64452;SDS011;50813;52.654;6.766;2023-05-23T09:43:33;14.8;;;4.0;;
64452;SDS011;50813;52.654;6.766;2023-05-23T09:46:47;14.2;;;3.9;;
64452;SDS011;50813;52.654;6.766;2023-05-23T09:48:27;14.4;;;4.0;;
64452;SDS011;50813;52.654;6.766;2023-05-23T09:50:04;17.3;;;4.41;;
64452;SDS011;50813;52.654;6.766;2023-05-23T09:54:53;15.7;;;3.7;;
64452;SDS011;50813;52.654;6.766;2023-05-23T09:56:30;17.7;;;4.3;;
64452;SDS011;50813;52.654;6.766;2023-05-23T09:59:44;15.3;;;4.2;;
64452;SDS011;50813;52.654;6.766;2023-05-23T10:01:29;15.6;;;3.9;;
64452;SDS011;50813;52.654;6.766;2023-05-23T10:03:09;12.8;;;3.8;;
64452;SDS011;50813;52.654;6.766;2023-05-23T10:04:46;12.3;;;3.8;;
64452;SDS011;50813;52.654;6.766;2023-05-23T10:08:06;12.5;;;3.7;;
64452;SDS011;50813;52.654;6.766;2023-05-23T10:09:46;14.3;;;4.2;;
64452;SDS011;50813;52.654;6.766;2023-05-23T10:12:17;14.6;;;4.2;;
64452;SDS011;50813;52.654;6.766;2023-05-23T10:15:06;13.6;;;4.1;;
64452;SDS011;50813;52.654;6.766;2023-05-23T10:18:37;11.7;;;3.7;;
64452;SDS011;50813;52.654;6.766;2023-05-23T10:20:19;12.0;;;3.4;;
64452;SDS011;50813;52.654;6.766;2023-05-23T10:22:00;16.4;;;4.2;;
64452;SDS011;50813;52.654;6.766;2023-05-23T10:23:41;13.1;;;3.6;;
64452;SDS011;50813;52.654;6.766;2023-05-23T10:26:54;14.4;;;3.9;;
64452;SDS011;50813;52.654;6.766;2023-05-23T10:28:30;19.2;;;4.1;;
64452;SDS011;50813;52.654;6.766;2023-05-23T10:30:07;14.3;;;3.9;;
64452;SDS011;50813;52.654;6.766;2023-05-23T10:31:44;14.0;;;4.8;;
64452;SDS011;50813;52.654;6.766;2023-05-23T10:35:00;13.1;;;3.8;;
64452;SDS011;50813;52.654;6.766;2023-05-23T10:36:47;11.1;;;3.7;;
64452;SDS011;50813;52.654;6.766;2023-05-23T10:38:33;15.7;;;4.0;;
64452;SDS011;50813;52.654;6.766;2023-05-23T10:40:16;10.7;;;3.5;;
64452;SDS011;50813;52.654;6.766;2023-05-23T10:43:47;15.4;;;3.6;;
64452;SDS011;50813;52.654;6.766;2023-05-23T10:45:30;14.4;;;3.4;;
64452;SDS011;50813;52.654;6.766;2023-05-23T10:47:24;15.1;;;4.3;;
64452;SDS011;50813;52.654;6.766;2023-05-23T10:49:01;12.4;;;3.0;;
64452;SDS011;50813;52.654;6.766;2023-05-23T10:50:37;12.3;;;3.4;;
64452;SDS011;50813;52.654;6.766;2023-05-23T10:53:52;13.7;;;4.0;;
64452;SDS011;50813;52.654;6.766;2023-05-23T10:55:30;11.0;;;3.5;;
64452;SDS011;50813;52.654;6.766;2023-05-23T10:57:08;20.5;;;5.11;;
64452;SDS011;50813;52.654;6.766;2023-05-23T11:00:21;16.61;;;3.9;;
64452;SDS011;50813;52.654;6.766;2023-05-23T11:01:59;16.61;;;3.9;;
64452;SDS011;50813;52.654;6.766;2023-05-23T11:03:47;9.71;;;3.3;;
64452;SDS011;50813;52.654;6.766;2023-05-23T11:05:26;12.8;;;3.7;;
64452;SDS011;50813;52.654;6.766;2023-05-23T11:08:40;13.7;;;3.6;;
64452;SDS011;50813;52.654;6.766;2023-05-23T11:10:17;11.2;;;3.2;;
64452;SDS011;50813;52.654;6.766;2023-05-23T11:11:54;14.7;;;3.6;;
64452;SDS011;50813;52.654;6.766;2023-05-23T11:14:03;9.5;;;3.3;;
64452;SDS011;50813;52.654;6.766;2023-05-23T11:15:40;12.8;;;3.4;;
64452;SDS011;50813;52.654;6.766;2023-05-23T11:19:22;10.0;;;3.2;;
64452;SDS011;50813;52.654;6.766;2023-05-23T11:20:59;8.9;;;3.1;;
64452;SDS011;50813;52.654;6.766;2023-05-23T11:22:36;12.0;;;3.5;;
64452;SDS011;50813;52.654;6.766;2023-05-23T11:24:12;9.31;;;3.4;;
64452;SDS011;50813;52.654;6.766;2023-05-23T11:27:27;10.4;;;3.4;;
64452;SDS011;50813;52.654;6.766;2023-05-23T11:29:07;8.6;;;3.2;;
64452;SDS011;50813;52.654;6.766;2023-05-23T11:30:46;11.4;;;3.9;;
64452;SDS011;50813;52.654;6.766;2023-05-23T11:32:23;15.1;;;4.2;;
64452;SDS011;50813;52.654;6.766;2023-05-23T11:35:40;13.1;;;3.4;;
64452;SDS011;50813;52.654;6.766;2023-05-23T11:37:17;13.1;;;3.4;;
64452;SDS011;50813;52.654;6.766;2023-05-23T11:38:53;9.6;;;3.0;;
64452;SDS011;50813;52.654;6.766;2023-05-23T11:42:08;9.0;;;2.8;;
64452;SDS011;50813;52.654;6.766;2023-05-23T11:43:48;7.8;;;2.6;;
64452;SDS011;50813;52.654;6.766;2023-05-23T11:45:26;9.31;;;2.6;;
64452;SDS011;50813;52.654;6.766;2023-05-23T11:47:05;12.5;;;3.3;;
64452;SDS011;50813;52.654;6.766;2023-05-23T11:50:20;11.1;;;3.0;;
64452;SDS011;50813;52.654;6.766;2023-05-23T11:51:56;11.7;;;2.9;;
64452;SDS011;50813;52.654;6.766;2023-05-23T11:53:33;12.8;;;3.7;;
64452;SDS011;50813;52.654;6.766;2023-05-23T11:56:46;10.1;;;2.8;;
64452;SDS011;50813;52.654;6.766;2023-05-23T11:58:25;11.3;;;3.1;;
64452;SDS011;50813;52.654;6.766;2023-05-23T12:00:02;15.8;;;3.1;;
64452;SDS011;50813;52.654;6.766;2023-05-23T12:01:40;8.9;;;3.0;;
64452;SDS011;50813;52.654;6.766;2023-05-23T12:04:55;12.1;;;3.4;;
64452;SDS011;50813;52.654;6.766;2023-05-23T12:06:31;12.8;;;3.0;;
64452;SDS011;50813;52.654;6.766;2023-05-23T12:08:07;9.1;;;2.6;;
64452;SDS011;50813;52.654;6.766;2023-05-23T12:11:23;11.7;;;3.2;;
64452;SDS011;50813;52.654;6.766;2023-05-23T12:13:00;10.21;;;2.6;;
64452;SDS011;50813;52.654;6.766;2023-05-23T12:14:36;10.5;;;3.1;;
64452;SDS011;50813;52.654;6.766;2023-05-23T12:17:49;8.6;;;3.0;;
64452;SDS011;50813;52.654;6.766;2023-05-23T12:19:28;7.5;;;2.7;;
64452;SDS011;50813;52.654;6.766;2023-05-23T12:21:05;11.0;;;3.2;;
64452;SDS011;50813;52.654;6.766;2023-05-23T12:22:42;13.3;;;3.6;;
64452;SDS011;50813;52.654;6.766;2023-05-23T12:25:56;9.0;;;3.1;;
64452;SDS011;50813;52.654;6.766;2023-05-23T12:27:33;13.5;;;3.5;;
64452;SDS011;50813;52.654;6.766;2023-05-23T12:29:10;7.9;;;3.0;;
64452;SDS011;50813;52.654;6.766;2023-05-23T12:32:23;9.1;;;2.8;;
64452;SDS011;50813;52.654;6.766;2023-05-23T12:34:00;10.9;;;2.9;;
64452;SDS011;50813;52.654;6.766;2023-05-23T12:35:36;15.4;;;3.5;;
64452;SDS011;50813;52.654;6.766;2023-05-23T12:37:13;9.81;;;2.9;;
64452;SDS011;50813;52.654;6.766;2023-05-23T12:40:26;10.4;;;3.6;;
64452;SDS011;50813;52.654;6.766;2023-05-23T12:42:07;9.6;;;2.8;;
64452;SDS011;50813;52.654;6.766;2023-05-23T12:43:48;9.9;;;2.7;;
64452;SDS011;50813;52.654;6.766;2023-05-23T12:47:07;9.71;;;2.8;;
64452;SDS011;50813;52.654;6.766;2023-05-23T12:48:44;9.6;;;2.7;;